This is the latest recevied weather packets stored in our database for station/object WB0VGI-1. If no packets are shown the sender has not sent any weather packets the latest 10 day(s).
| Time | Temp. | Humidity | Pressure | Rain* | Wind** | Luminosity | Snow |
|---|---|---|---|---|---|---|---|
| 1778035625 | 4.44° C | 63% | 1017.3 hPa | 0 mm | - | - | - |
| 1778034425 | 5° C | 63% | 1017.1 hPa | 0 mm | - | - | - |
| 1778033225 | 5° C | 61% | 1016.7 hPa | 0 mm | - | - | - |
| 1778032025 | 6.11° C | 56% | 1016.2 hPa | 0 mm | - | - | - |
| 1778030825 | 6.11° C | 56% | 1015.9 hPa | 0 mm | - | - | - |
| 1778029625 | 6.67° C | 54% | 1015.6 hPa | 0 mm | - | - | - |
| 1778028425 | 7.22° C | 51% | 1015.3 hPa | 0 mm | - | - | - |
| 1778027225 | 7.78° C | 51% | 1015.1 hPa | 0 mm | - | - | - |
| 1778026025 | 8.33° C | 50% | 1014.8 hPa | 0 mm | - | - | - |
| 1778024825 | 7.78° C | 50% | 1014.6 hPa | 0 mm | - | - | - |
| 1778023625 | 8.89° C | 48% | 1014.4 hPa | 0 mm | - | - | - |
| 1778022425 | 9.44° C | 47% | 1014.2 hPa | 0 mm | - | - | - |
| 1778021225 | 8.89° C | 47% | 1014.2 hPa | 0 mm | - | - | - |
| 1778020025 | 9.44° C | 45% | 1014.1 hPa | 0 mm | - | - | - |
| 1778018825 | 10° C | 44% | 1014 hPa | 0 mm | - | - | - |
| 1778017625 | 10° C | 44% | 1014.1 hPa | 0 mm | - | - | - |
| 1778016425 | 8.89° C | 46% | 1014.2 hPa | 0 mm | - | - | - |
| 1778015225 | 8.89° C | 45% | 1014.3 hPa | 0 mm | - | - | - |
| 1778014025 | 8.89° C | 47% | 1014.3 hPa | 0 mm | - | - | - |
| 1778012825 | 8.33° C | 48% | 1014.5 hPa | 0 mm | - | - | - |
| 1778011625 | 8.33° C | 48% | 1014.6 hPa | 0 mm | - | - | - |
| 1778010425 | 8.33° C | 47% | 1014.5 hPa | 0 mm | - | - | - |
| 1778009225 | 8.33° C | 48% | 1014.6 hPa | 0 mm | - | - | - |
| 1778008025 | 8.33° C | 47% | 1014.7 hPa | 0 mm | - | - | - |
| 1778006825 | 10° C | 44% | 1014.4 hPa | 0 mm | - | - | - |
* Rain latest hour (hover to see other rain measurements)
** Current wind speed in m/s (hover to see current wind gust speed)